Time;durP1;ratioP1;P1;durP2;ratioP2;P2;SDS_P1;SDS_P2;PMS_P1;PMS_P2;Temp;Humidity;BMP_temperature;BMP_pressure;BME280_temperature;BME280_humidity;BME280_pressure;Samples;Min_cycle;Max_cycle;Signal;HPM_P1;HPM_P2
2023/06/20 00:00:58;;;;;;;957.77;889.57;;;;;;;;;;4981820;28;20030;-61
2023/06/20 00:03:24;;;;;;;962.83;894.33;;;;;;;;;;4981845;28;20046;-60
2023/06/20 00:05:49;;;;;;;959.83;891.57;;;;;;;;;;4981883;28;20612;-61
2023/06/20 00:08:15;;;;;;;960.27;892.43;;;;;;;;;;4979233;28;20034;-61
2023/06/20 00:10:40;;;;;;;958.60;890.80;;;;;;;;;;4982505;28;20479;-60
2023/06/20 00:13:06;;;;;;;959.17;890.97;;;;;;;;;;4980240;28;20054;-60
2023/06/20 00:15:32;;;;;;;951.40;883.47;;;;;;;;;;4981586;28;20027;-60
2023/06/20 00:18:00;;;;;;;960.27;892.03;;;;;;;;;;4981851;28;20292;-65
2023/06/20 00:20:27;;;;;;;957.60;889.47;;;;;;;;;;4981721;28;20041;-60
2023/06/20 00:22:52;;;;;;;953.63;885.33;;;;;;;;;;4970479;28;20541;-59
2023/06/20 00:25:18;;;;;;;954.10;886.27;;;;;;;;;;4981329;28;20438;-59
2023/06/20 00:27:43;;;;;;;951.77;884.13;;;;;;;;;;4982505;28;20039;-60
2023/06/20 00:30:09;;;;;;;955.50;887.50;;;;;;;;;;4980083;28;20054;-60
2023/06/20 00:32:36;;;;;;;949.27;881.93;;;;;;;;;;4988133;28;20042;-60
2023/06/20 00:35:02;;;;;;;948.57;880.87;;;;;;;;;;4979762;28;20509;-59
2023/06/20 00:37:28;;;;;;;956.93;888.90;;;;;;;;;;4982162;28;20077;-61
2023/06/20 00:39:53;;;;;;;951.80;883.70;;;;;;;;;;4979875;28;20458;-61
2023/06/20 00:42:19;;;;;;;947.10;879.47;;;;;;;;;;4981607;28;20034;-60
2023/06/20 00:44:45;;;;;;;941.70;874.40;;;;;;;;;;4969738;28;20038;-61
2023/06/20 00:47:15;;;;;;;931.83;864.93;;;;;;;;;;4979837;28;20072;-60
2023/06/20 00:49:40;;;;;;;929.10;862.43;;;;;;;;;;4979081;28;20050;-60
2023/06/20 00:52:06;;;;;;;913.17;846.80;;;;;;;;;;4971172;28;20098;-60
2023/06/20 00:54:32;;;;;;;912.07;845.77;;;;;;;;;;4981329;28;20126;-60
2023/06/20 00:56:57;;;;;;;912.77;846.33;;;;;;;;;;4981319;28;20030;-60
2023/06/20 00:59:23;;;;;;;925.63;858.10;;;;;;;;;;4981770;28;20034;-60
2023/06/20 01:01:49;;;;;;;896.60;831.17;;;;;;;;;;4979862;28;20564;-60
2023/06/20 01:04:14;;;;;;;909.03;843.23;;;;;;;;;;4981041;28;20034;-60
2023/06/20 01:06:47;;;;;;;896.43;831.07;;;;;;;;;;4981047;28;20062;-60
2023/06/20 01:09:20;;;;;;;904.50;838.60;;;;;;;;;;4981553;28;20113;-60
2023/06/20 01:11:52;;;;;;;902.43;836.50;;;;;;;;;;4981403;28;20454;-60
2023/06/20 01:14:20;;;;;;;896.13;830.77;;;;;;;;;;4981581;28;20566;-60
2023/06/20 01:16:46;;;;;;;905.13;839.23;;;;;;;;;;4980793;28;20120;-60
2023/06/20 01:19:12;;;;;;;900.43;834.73;;;;;;;;;;4980630;28;20121;-61
2023/06/20 01:21:41;;;;;;;907.03;840.97;;;;;;;;;;4979544;28;20042;-60
2023/06/20 01:24:15;;;;;;;906.20;840.07;;;;;;;;;;4980727;28;20060;-60
2023/06/20 01:26:47;;;;;;;911.08;844.63;;;;;;;;;;4969718;28;20129;-60
2023/06/20 01:29:18;;;;;;;917.17;851.00;;;;;;;;;;4981350;28;20096;-60
2023/06/20 01:31:49;;;;;;;883.90;819.07;;;;;;;;;;4968533;28;20034;-60
2023/06/20 01:34:20;;;;;;;585.57;529.60;;;;;;;;;;4980722;28;20049;-60
2023/06/20 01:36:56;;;;;;;214.63;150.10;;;;;;;;;;4979092;28;20305;-61
2023/06/20 01:39:26;;;;;;;511.20;458.27;;;;;;;;;;4968996;28;20726;-60
2023/06/20 01:41:55;;;;;;;572.77;517.23;;;;;;;;;;4980113;28;20288;-60
2023/06/20 01:44:22;;;;;;;897.93;832.67;;;;;;;;;;4980125;28;20391;-60
2023/06/20 01:46:50;;;;;;;731.50;671.27;;;;;;;;;;4977310;28;20568;-60
2023/06/20 01:49:16;;;;;;;915.13;848.57;;;;;;;;;;4979795;28;20281;-60
2023/06/20 01:51:42;;;;;;;915.23;848.60;;;;;;;;;;4979644;28;20277;-60
2023/06/20 01:54:08;;;;;;;909.37;843.70;;;;;;;;;;4980340;28;20056;-60
2023/06/20 01:56:34;;;;;;;921.70;855.00;;;;;;;;;;4979714;28;20735;-60
2023/06/20 01:59:00;;;;;;;917.53;850.77;;;;;;;;;;5011372;28;20339;-60
2023/06/20 02:01:26;;;;;;;906.03;839.97;;;;;;;;;;5010361;28;20108;-60
2023/06/20 02:03:54;;;;;;;916.50;849.83;;;;;;;;;;4980844;28;20266;-60
2023/06/20 02:06:20;;;;;;;907.83;841.63;;;;;;;;;;5009952;28;20058;-60
2023/06/20 02:08:46;;;;;;;912.90;846.10;;;;;;;;;;4968613;28;20619;-60
2023/06/20 02:11:14;;;;;;;919.00;852.07;;;;;;;;;;5010292;28;20039;-59
2023/06/20 02:13:40;;;;;;;914.07;847.70;;;;;;;;;;4978609;28;20085;-60
2023/06/20 02:16:07;;;;;;;890.30;825.00;;;;;;;;;;4970104;28;20714;-60
2023/06/20 02:18:35;;;;;;;900.03;834.43;;;;;;;;;;4986257;28;20049;-60
2023/06/20 02:21:09;;;;;;;863.40;799.57;;;;;;;;;;4969487;28;20285;-60
2023/06/20 02:23:35;;;;;;;;;;;;;;;;;;4979967;28;20039;-59
2023/06/20 02:26:08;;;;;;;889.47;824.27;;;;;;;;;;5010422;28;20371;-59
2023/06/20 02:28:35;;;;;;;876.53;811.77;;;;;;;;;;4979038;28;20481;-59
2023/06/20 02:31:02;;;;;;;923.23;856.17;;;;;;;;;;5007466;28;20632;-59
2023/06/20 02:33:32;;;;;;;812.90;750.93;;;;;;;;;;4979558;28;20400;-59
2023/06/20 02:36:00;;;;;;;814.33;752.23;;;;;;;;;;4969064;28;20299;-60
2023/06/20 02:38:26;;;;;;;861.83;797.73;;;;;;;;;;4978349;28;20290;-60
2023/06/20 02:40:51;;;;;;;894.23;828.60;;;;;;;;;;4984798;28;20289;-60
2023/06/20 02:43:17;;;;;;;887.33;821.97;;;;;;;;;;5002729;28;20286;-60
2023/06/20 02:45:43;;;;;;;884.37;819.53;;;;;;;;;;4952728;28;20033;-61
2023/06/20 02:48:12;;;;;;;880.37;815.80;;;;;;;;;;4968663;28;20584;-60
2023/06/20 02:50:56;;;;;;;855.20;791.20;;;;;;;;;;4986905;28;20772;-60
2023/06/20 02:53:35;;;;;;;841.00;777.63;;;;;;;;;;5010241;28;20317;-60
2023/06/20 02:56:02;;;;;;;862.00;797.43;;;;;;;;;;4977958;28;20037;-60
2023/06/20 02:58:31;;;;;;;874.37;809.80;;;;;;;;;;4979681;28;20277;-60
2023/06/20 03:00:58;;;;;;;868.27;803.67;;;;;;;;;;5008623;28;20282;-60
2023/06/20 03:03:35;;;;;;;845.17;781.33;;;;;;;;;;4985791;28;20819;-60
2023/06/20 03:06:01;;;;;;;876.73;811.73;;;;;;;;;;4977894;28;20294;-60
2023/06/20 03:08:28;;;;;;;885.03;819.40;;;;;;;;;;4979158;28;20303;-60
2023/06/20 03:10:54;;;;;;;884.67;819.40;;;;;;;;;;4985970;28;20034;-60
2023/06/20 03:13:21;;;;;;;891.53;825.63;;;;;;;;;;4978369;28;20849;-60
2023/06/20 03:15:50;;;;;;;903.97;837.80;;;;;;;;;;4980841;28;20313;-60
2023/06/20 03:18:17;;;;;;;881.57;816.30;;;;;;;;;;4980971;28;20282;-60
2023/06/20 03:20:44;;;;;;;890.20;824.07;;;;;;;;;;4988701;28;20355;-60
2023/06/20 03:23:10;;;;;;;880.37;815.13;;;;;;;;;;4982859;28;20046;-60
2023/06/20 03:25:35;;;;;;;878.30;813.03;;;;;;;;;;4980850;28;20297;-59
2023/06/20 03:28:01;;;;;;;872.87;808.27;;;;;;;;;;5013047;28;20123;-61
2023/06/20 03:30:26;;;;;;;856.53;792.50;;;;;;;;;;4982954;28;20454;-60
2023/06/20 03:32:54;;;;;;;829.37;766.93;;;;;;;;;;5013179;28;20049;-61
2023/06/20 03:35:19;;;;;;;862.83;798.80;;;;;;;;;;5013697;28;20323;-60
2023/06/20 03:37:45;;;;;;;858.30;793.93;;;;;;;;;;4972679;28;20034;-61
2023/06/20 03:40:11;;;;;;;881.90;816.43;;;;;;;;;;4973363;28;20042;-61
2023/06/20 03:42:40;;;;;;;918.33;851.07;;;;;;;;;;5012177;28;20680;-61
2023/06/20 03:45:07;;;;;;;913.70;846.80;;;;;;;;;;5013808;28;20878;-60
2023/06/20 03:47:34;;;;;;;931.63;864.57;;;;;;;;;;4971325;28;20293;-61
2023/06/20 03:49:59;;;;;;;926.63;859.53;;;;;;;;;;5013882;28;20887;-60
2023/06/20 03:52:25;;;;;;;936.83;869.33;;;;;;;;;;4981506;28;20039;-61
2023/06/20 03:54:51;;;;;;;942.53;874.83;;;;;;;;;;5014133;28;20043;-61
2023/06/20 03:57:16;;;;;;;949.90;881.90;;;;;;;;;;4982172;28;20293;-60
2023/06/20 03:59:42;;;;;;;936.00;869.03;;;;;;;;;;4980599;28;20034;-59
2023/06/20 04:02:07;;;;;;;946.43;879.37;;;;;;;;;;4982150;28;20393;-59
2023/06/20 04:04:33;;;;;;;955.73;887.33;;;;;;;;;;4972284;28;20497;-59
2023/06/20 04:06:59;;;;;;;956.77;888.73;;;;;;;;;;4981294;28;20149;-59
2023/06/20 04:09:26;;;;;;;953.87;885.77;;;;;;;;;;4997446;28;20057;-61
2023/06/20 04:11:51;;;;;;;961.87;893.50;;;;;;;;;;4971731;28;20074;-60
2023/06/20 04:14:17;;;;;;;956.80;888.03;;;;;;;;;;4971164;28;20184;-60
2023/06/20 04:16:42;;;;;;;955.47;887.40;;;;;;;;;;4971605;28;20046;-60
2023/06/20 04:19:08;;;;;;;967.47;899.03;;;;;;;;;;4979872;28;20034;-60
2023/06/20 04:21:33;;;;;;;967.63;899.07;;;;;;;;;;4981047;28;20026;-60
2023/06/20 04:23:59;;;;;;;963.73;895.40;;;;;;;;;;4981166;28;20038;-60
2023/06/20 04:26:25;;;;;;;969.87;901.00;;;;;;;;;;5012870;28;20528;-59
2023/06/20 04:28:53;;;;;;;973.23;904.03;;;;;;;;;;4980543;28;20038;-60
2023/06/20 04:31:20;;;;;;;967.13;898.70;;;;;;;;;;4972374;28;20370;-59
2023/06/20 04:33:45;;;;;;;972.17;903.50;;;;;;;;;;4980888;28;20046;-59
2023/06/20 04:36:13;;;;;;;970.00;901.87;;;;;;;;;;4971702;28;20125;-60
2023/06/20 04:38:40;;;;;;;977.67;908.73;;;;;;;;;;4971884;28;20553;-60
2023/06/20 04:41:06;;;;;;;983.63;914.47;;;;;;;;;;4971494;28;20031;-60
2023/06/20 04:43:33;;;;;;;990.53;920.73;;;;;;;;;;5011559;28;20038;-60
2023/06/20 04:45:58;;;;;;;987.07;918.20;;;;;;;;;;4980323;28;20030;-60
2023/06/20 04:48:28;;;;;;;1003.27;933.37;;;;;;;;;;4978529;28;20199;-62
2023/06/20 04:50:55;;;;;;;1004.00;934.37;;;;;;;;;;5012403;28;20039;-61
2023/06/20 04:53:22;;;;;;;1008.80;938.57;;;;;;;;;;4977215;28;20284;-60
2023/06/20 04:55:48;;;;;;;1014.50;944.00;;;;;;;;;;4979708;28;20042;-61
2023/06/20 04:58:14;;;;;;;1022.27;951.47;;;;;;;;;;4979586;28;20050;-61
2023/06/20 05:00:40;;;;;;;1023.83;953.07;;;;;;;;;;4997219;28;20025;-61
2023/06/20 05:03:06;;;;;;;1021.93;951.47;;;;;;;;;;5014652;28;20034;-61
2023/06/20 05:05:32;;;;;;;1033.47;962.53;;;;;;;;;;4986875;28;20042;-61
2023/06/20 05:07:58;;;;;;;1035.47;964.10;;;;;;;;;;4986883;28;20609;-61
2023/06/20 05:10:24;;;;;;;1044.77;973.50;;;;;;;;;;4981033;28;20129;-65
2023/06/20 05:12:49;;;;;;;1043.63;971.83;;;;;;;;;;4980047;28;20089;-61
2023/06/20 05:15:15;;;;;;;1047.47;975.80;;;;;;;;;;4980235;28;20074;-61
2023/06/20 05:17:44;;;;;;;1050.13;978.57;;;;;;;;;;4981105;28;20104;-61
2023/06/20 05:20:09;;;;;;;1047.53;976.40;;;;;;;;;;4981501;28;20133;-60
2023/06/20 05:22:35;;;;;;;1060.07;987.63;;;;;;;;;;4970589;28;20042;-61
2023/06/20 05:25:01;;;;;;;1059.00;987.00;;;;;;;;;;4978926;28;20038;-61
2023/06/20 05:27:27;;;;;;;1056.23;984.30;;;;;;;;;;4978424;28;20112;-62
2023/06/20 05:29:52;;;;;;;1054.13;982.53;;;;;;;;;;4979559;28;20471;-61
2023/06/20 05:32:18;;;;;;;1063.13;990.70;;;;;;;;;;4979264;28;20465;-61
2023/06/20 05:34:44;;;;;;;1067.30;994.70;;;;;;;;;;4978799;28;20043;-61
2023/06/20 05:37:09;;;;;;;1069.23;996.77;;;;;;;;;;4978963;28;20461;-62
2023/06/20 05:39:35;;;;;;;1070.00;996.67;;;;;;;;;;4980401;28;20042;-61
2023/06/20 05:42:01;;;;;;;1075.33;999.17;;;;;;;;;;4980912;28;20045;-59
2023/06/20 05:44:26;;;;;;;1075.20;999.43;;;;;;;;;;4980347;28;20070;-59
2023/06/20 05:46:53;;;;;;;1076.93;999.90;;;;;;;;;;4976891;28;20120;-59
2023/06/20 05:49:21;;;;;;;1076.93;999.53;;;;;;;;;;4977792;28;20621;-59
2023/06/20 05:51:46;;;;;;;1076.30;999.47;;;;;;;;;;4982195;28;20038;-59
2023/06/20 05:54:13;;;;;;;1079.07;999.90;;;;;;;;;;4983681;28;20631;-57
2023/06/20 05:56:38;;;;;;;1083.83;999.90;;;;;;;;;;4980545;28;20089;-60
2023/06/20 05:59:04;;;;;;;1081.47;999.90;;;;;;;;;;4976805;28;20027;-60
2023/06/20 06:01:30;;;;;;;1084.73;999.90;;;;;;;;;;4977964;28;20485;-59
2023/06/20 06:03:55;;;;;;;1088.77;999.90;;;;;;;;;;4979320;28;20038;-59
2023/06/20 06:06:21;;;;;;;1087.93;999.90;;;;;;;;;;5010248;28;20058;-59
2023/06/20 06:08:46;;;;;;;1091.87;999.90;;;;;;;;;;4979175;28;20081;-62
2023/06/20 06:11:12;;;;;;;1097.47;999.90;;;;;;;;;;5008919;28;20058;-59
2023/06/20 06:13:39;;;;;;;1101.77;999.90;;;;;;;;;;4977791;28;20050;-59
2023/06/20 06:16:06;;;;;;;1101.30;999.90;;;;;;;;;;4978565;28;20084;-61
2023/06/20 06:18:31;;;;;;;1106.07;999.90;;;;;;;;;;4977954;28;20082;-60
2023/06/20 06:20:57;;;;;;;1109.03;999.90;;;;;;;;;;4977165;28;20177;-59
2023/06/20 06:23:22;;;;;;;1113.47;999.90;;;;;;;;;;4978557;28;20038;-59
2023/06/20 06:25:48;;;;;;;1114.03;999.90;;;;;;;;;;4978166;28;20042;-59
2023/06/20 06:28:14;;;;;;;1117.83;999.90;;;;;;;;;;4977211;28;20512;-60
2023/06/20 06:30:39;;;;;;;1125.70;999.90;;;;;;;;;;4977826;28;20438;-60
2023/06/20 06:33:07;;;;;;;1112.97;999.90;;;;;;;;;;4979518;28;20058;-60
2023/06/20 06:35:33;;;;;;;1111.93;999.90;;;;;;;;;;4979374;28;20035;-60
2023/06/20 06:38:00;;;;;;;1128.80;999.90;;;;;;;;;;4979710;28;20042;-60
2023/06/20 06:40:25;;;;;;;1124.10;999.90;;;;;;;;;;4978614;28;20034;-59
2023/06/20 06:42:51;;;;;;;1127.97;999.90;;;;;;;;;;4980264;28;20027;-60
2023/06/20 06:45:18;;;;;;;1137.40;999.90;;;;;;;;;;4968853;28;20659;-59
2023/06/20 06:47:43;;;;;;;1138.60;999.90;;;;;;;;;;4980275;28;20595;-59
2023/06/20 06:50:09;;;;;;;1131.30;999.90;;;;;;;;;;4982705;28;20038;-60
2023/06/20 06:52:34;;;;;;;1131.23;999.90;;;;;;;;;;4983235;28;20125;-60
2023/06/20 06:55:00;;;;;;;1142.93;999.90;;;;;;;;;;4982487;28;20030;-60
2023/06/20 06:57:25;;;;;;;1147.70;999.90;;;;;;;;;;4983523;28;20517;-59
2023/06/20 06:59:51;;;;;;;1154.90;999.90;;;;;;;;;;4982854;28;20038;-59
2023/06/20 07:02:16;;;;;;;1163.00;999.90;;;;;;;;;;4982505;28;20038;-62
2023/06/20 07:04:42;;;;;;;1163.40;999.90;;;;;;;;;;4982138;28;20030;-59
2023/06/20 07:07:07;;;;;;;1167.73;999.90;;;;;;;;;;4983454;28;20476;-60
2023/06/20 07:09:33;;;;;;;1176.17;999.90;;;;;;;;;;4983148;28;20038;-59
2023/06/20 07:11:58;;;;;;;1173.93;999.90;;;;;;;;;;4983447;28;20481;-59
2023/06/20 07:14:24;;;;;;;1185.50;999.90;;;;;;;;;;4982665;28;20104;-59
2023/06/20 07:16:49;;;;;;;1180.10;999.90;;;;;;;;;;4973423;28;20342;-60
2023/06/20 07:19:14;;;;;;;1178.53;999.90;;;;;;;;;;4983038;28;20497;-60
2023/06/20 07:21:40;;;;;;;1180.00;999.90;;;;;;;;;;4983297;28;20124;-61
2023/06/20 07:24:06;;;;;;;1182.37;999.90;;;;;;;;;;4981441;28;20656;-59
2023/06/20 07:26:31;;;;;;;1177.60;999.90;;;;;;;;;;4983429;28;20030;-59
2023/06/20 07:28:57;;;;;;;1182.67;999.90;;;;;;;;;;5013242;28;20481;-57
2023/06/20 07:31:22;;;;;;;1171.37;999.90;;;;;;;;;;4984915;28;20069;-58
2023/06/20 07:33:48;;;;;;;1179.77;999.90;;;;;;;;;;4982414;28;20042;-59
2023/06/20 07:36:13;;;;;;;1175.83;999.90;;;;;;;;;;4983725;28;20180;-57
2023/06/20 07:38:39;;;;;;;1179.83;999.90;;;;;;;;;;4983638;28;20038;-58
2023/06/20 07:41:05;;;;;;;1180.73;999.90;;;;;;;;;;4983617;28;20042;-57
2023/06/20 07:43:30;;;;;;;1179.63;999.90;;;;;;;;;;4983537;28;20486;-57
2023/06/20 07:45:57;;;;;;;1183.23;999.90;;;;;;;;;;4982636;28;20030;-59
2023/06/20 07:48:29;;;;;;;1183.47;999.90;;;;;;;;;;4983365;28;20386;-57
2023/06/20 07:50:55;;;;;;;1176.67;999.90;;;;;;;;;;4982192;28;20041;-58
2023/06/20 07:53:21;;;;;;;1178.03;999.90;;;;;;;;;;4981987;28;20045;-57
2023/06/20 07:55:46;;;;;;;1180.20;999.90;;;;;;;;;;4982201;28;20042;-57
2023/06/20 07:58:11;;;;;;;1175.40;999.90;;;;;;;;;;4981725;28;20070;-58
2023/06/20 08:00:38;;;;;;;1179.80;999.90;;;;;;;;;;4980946;28;20097;-58
2023/06/20 08:03:03;;;;;;;1177.77;999.90;;;;;;;;;;4983555;28;20053;-57
2023/06/20 08:05:29;;;;;;;1178.77;999.90;;;;;;;;;;4981947;28;20450;-59
2023/06/20 08:07:54;;;;;;;1173.70;999.90;;;;;;;;;;4981676;28;20130;-59
2023/06/20 08:10:19;;;;;;;1183.17;999.90;;;;;;;;;;4981366;28;20038;-59
2023/06/20 08:12:45;;;;;;;1182.33;999.90;;;;;;;;;;4982759;28;20898;-58
2023/06/20 08:15:10;;;;;;;1186.33;999.90;;;;;;;;;;4981243;28;20545;-58
2023/06/20 08:17:36;;;;;;;1185.40;999.90;;;;;;;;;;4981202;28;20045;-58
2023/06/20 08:20:06;;;;;;;1186.93;999.90;;;;;;;;;;4981790;28;20030;-58
2023/06/20 08:22:32;;;;;;;1183.63;999.90;;;;;;;;;;4983537;28;20041;-59
2023/06/20 08:24:57;;;;;;;1188.77;999.90;;;;;;;;;;4980298;28;20050;-58
2023/06/20 08:27:23;;;;;;;1189.23;999.90;;;;;;;;;;4982564;28;20036;-58
2023/06/20 08:29:49;;;;;;;1199.20;999.90;;;;;;;;;;4980950;28;20037;-63
2023/06/20 08:32:14;;;;;;;1198.47;999.90;;;;;;;;;;4981744;28;20604;-61
2023/06/20 08:34:40;;;;;;;1197.87;999.90;;;;;;;;;;4971088;28;20038;-60
2023/06/20 08:37:08;;;;;;;1199.00;999.90;;;;;;;;;;4977227;28;20085;-61
2023/06/20 08:39:33;;;;;;;1202.67;999.90;;;;;;;;;;4973873;28;20038;-59
2023/06/20 08:41:59;;;;;;;1205.43;999.90;;;;;;;;;;4981917;28;20469;-59
2023/06/20 08:44:24;;;;;;;1203.70;999.90;;;;;;;;;;4981428;28;20043;-59
2023/06/20 08:46:56;;;;;;;1203.00;999.90;;;;;;;;;;4979500;28;20041;-59
2023/06/20 08:49:22;;;;;;;1210.80;999.90;;;;;;;;;;4980950;28;20549;-59
2023/06/20 08:51:49;;;;;;;1206.47;999.90;;;;;;;;;;4980946;28;20084;-60
2023/06/20 08:54:16;;;;;;;1211.63;999.90;;;;;;;;;;4981164;28;20078;-60
2023/06/20 08:56:43;;;;;;;1210.07;999.90;;;;;;;;;;4979537;28;20022;-60
2023/06/20 08:59:08;;;;;;;1202.27;999.90;;;;;;;;;;4982465;28;20030;-60
2023/06/20 09:01:35;;;;;;;1208.07;999.90;;;;;;;;;;4980984;28;20042;-59
2023/06/20 09:04:01;;;;;;;1213.33;999.90;;;;;;;;;;4981837;28;20034;-60
2023/06/20 09:06:39;;;;;;;1216.93;999.90;;;;;;;;;;4980166;28;20055;-60
2023/06/20 09:09:05;;;;;;;1211.77;999.90;;;;;;;;;;4981662;28;20034;-61
2023/06/20 09:11:33;;;;;;;1213.43;999.90;;;;;;;;;;5009720;28;20038;-62
2023/06/20 09:14:02;;;;;;;1222.53;999.90;;;;;;;;;;4981818;28;20040;-61
2023/06/20 09:16:30;;;;;;;1216.87;999.90;;;;;;;;;;4980326;28;20034;-63
2023/06/20 09:18:59;;;;;;;1222.23;999.90;;;;;;;;;;4981304;28;20046;-60
2023/06/20 09:21:25;;;;;;;1219.43;999.90;;;;;;;;;;4981234;28;20038;-60
2023/06/20 09:24:00;;;;;;;1216.77;999.90;;;;;;;;;;4981815;28;20616;-60
2023/06/20 09:26:26;;;;;;;1221.13;999.90;;;;;;;;;;4981314;28;20042;-60
2023/06/20 09:28:51;;;;;;;1222.33;999.90;;;;;;;;;;5012816;28;20060;-60
2023/06/20 09:31:17;;;;;;;1225.63;999.90;;;;;;;;;;4980237;28;20736;-60
2023/06/20 09:33:42;;;;;;;1219.23;999.90;;;;;;;;;;4978104;28;20042;-61
2023/06/20 09:36:12;;;;;;;1221.77;999.90;;;;;;;;;;4974657;28;20038;-61
2023/06/20 09:38:40;;;;;;;1225.47;999.90;;;;;;;;;;4980647;28;20418;-61
2023/06/20 09:41:06;;;;;;;1219.47;999.90;;;;;;;;;;4978281;28;20030;-63
2023/06/20 09:43:32;;;;;;;1221.93;999.90;;;;;;;;;;4980060;28;20042;-61
2023/06/20 09:45:57;;;;;;;1224.47;999.90;;;;;;;;;;4980710;28;20268;-67
2023/06/20 09:48:23;;;;;;;1233.97;999.90;;;;;;;;;;4980409;28;20035;-58
2023/06/20 09:50:49;;;;;;;1226.27;999.90;;;;;;;;;;4980193;28;20038;-60
2023/06/20 09:53:15;;;;;;;1218.80;999.90;;;;;;;;;;4981209;28;20053;-61
2023/06/20 09:55:40;;;;;;;1229.80;999.90;;;;;;;;;;4980130;28;20041;-60
2023/06/20 09:58:06;;;;;;;1233.20;999.90;;;;;;;;;;4980187;28;20042;-58
2023/06/20 10:00:33;;;;;;;1230.13;999.90;;;;;;;;;;4979499;28;20116;-59
2023/06/20 10:02:59;;;;;;;1237.83;999.90;;;;;;;;;;4971082;28;20679;-58
2023/06/20 10:05:26;;;;;;;1235.67;999.90;;;;;;;;;;4979749;28;20407;-59
2023/06/20 10:07:57;;;;;;;1239.80;999.90;;;;;;;;;;4968884;28;20568;-58
2023/06/20 10:10:23;;;;;;;1247.30;999.90;;;;;;;;;;4978243;28;20085;-58
2023/06/20 10:12:49;;;;;;;1244.20;999.90;;;;;;;;;;4993272;28;20026;-59
2023/06/20 10:15:15;;;;;;;1252.47;999.90;;;;;;;;;;4978957;28;20129;-58
2023/06/20 10:17:46;;;;;;;1248.18;999.90;;;;;;;;;;4978932;28;20486;-58
2023/06/20 10:20:31;;;;;;;1243.63;999.90;;;;;;;;;;4979599;28;20046;-59
2023/06/20 10:22:58;;;;;;;1247.15;999.90;;;;;;;;;;4983180;28;20038;-59
2023/06/20 10:25:25;;;;;;;1249.95;999.90;;;;;;;;;;4984434;28;20552;-59
2023/06/20 10:27:51;;;;;;;1257.57;999.90;;;;;;;;;;4984574;28;20039;-59
2023/06/20 10:30:37;;;;;;;1255.25;999.90;;;;;;;;;;4983643;28;20635;-59
2023/06/20 10:33:09;;;;;;;1271.70;999.90;;;;;;;;;;4984189;28;20053;-60
2023/06/20 10:35:35;;;;;;;1266.20;999.90;;;;;;;;;;4983459;28;20152;-59
2023/06/20 10:38:07;;;;;;;1269.72;999.90;;;;;;;;;;4985520;28;20143;-59
2023/06/20 10:40:34;;;;;;;1275.45;999.90;;;;;;;;;;4984582;28;20673;-59
2023/06/20 10:42:59;;;;;;;1274.90;999.90;;;;;;;;;;4984771;28;20100;-57
2023/06/20 10:45:27;;;;;;;1273.13;999.90;;;;;;;;;;4984825;28;20034;-58
2023/06/20 10:47:56;;;;;;;1271.05;999.90;;;;;;;;;;4983750;28;20135;-60
2023/06/20 10:50:22;;;;;;;1265.95;999.90;;;;;;;;;;4984705;28;20041;-59
2023/06/20 10:52:48;;;;;;;1273.78;999.90;;;;;;;;;;4984158;28;20034;-59
2023/06/20 10:55:14;;;;;;;1263.68;999.90;;;;;;;;;;4985235;28;20494;-59
2023/06/20 10:57:46;;;;;;;1262.47;999.90;;;;;;;;;;4983780;28;20560;-60
2023/06/20 11:00:18;;;;;;;1261.13;999.90;;;;;;;;;;4984007;28;20088;-59
2023/06/20 11:02:48;;;;;;;1264.70;999.90;;;;;;;;;;4983096;28;20045;-59
2023/06/20 11:05:14;;;;;;;1254.85;999.90;;;;;;;;;;4982898;28;20038;-58
2023/06/20 11:08:01;;;;;;;1247.82;999.90;;;;;;;;;;4983061;28;20068;-59
2023/06/20 11:10:33;;;;;;;1253.10;999.90;;;;;;;;;;4983537;28;20397;-60
2023/06/20 11:13:00;;;;;;;1255.35;999.90;;;;;;;;;;4982927;28;20069;-60
2023/06/20 11:15:30;;;;;;;1257.03;999.90;;;;;;;;;;4982668;28;20054;-60
2023/06/20 11:17:56;;;;;;;1250.30;999.90;;;;;;;;;;4982112;28;20089;-59
2023/06/20 11:20:23;;;;;;;1248.60;999.90;;;;;;;;;;4983224;28;20030;-59
2023/06/20 11:22:48;;;;;;;1251.43;999.90;;;;;;;;;;4983124;28;20109;-58
2023/06/20 11:25:24;;;;;;;1247.35;999.90;;;;;;;;;;4982704;28;21078;-61
2023/06/20 11:27:49;;;;;;;1247.88;999.90;;;;;;;;;;4982617;28;20259;-59
2023/06/20 11:30:15;;;;;;;1247.70;999.90;;;;;;;;;;4982142;28;20072;-59
2023/06/20 11:32:40;;;;;;;1254.03;999.90;;;;;;;;;;4981364;28;20038;-60
2023/06/20 11:35:08;;;;;;;1252.55;999.90;;;;;;;;;;4975533;28;20042;-58
2023/06/20 11:37:34;;;;;;;1253.40;999.90;;;;;;;;;;4982380;28;20030;-59
2023/06/20 11:39:59;;;;;;;1249.68;999.90;;;;;;;;;;4982068;28;20030;-59
2023/06/20 11:42:33;;;;;;;1255.10;999.90;;;;;;;;;;4982107;28;20125;-59
2023/06/20 11:45:11;;;;;;;1249.88;999.90;;;;;;;;;;4980746;28;20038;-60
2023/06/20 11:47:36;;;;;;;1255.82;999.90;;;;;;;;;;4980156;28;20102;-60
2023/06/20 11:50:02;;;;;;;1257.22;999.90;;;;;;;;;;4955449;28;20569;-59
2023/06/20 11:52:29;;;;;;;1268.50;999.90;;;;;;;;;;4973024;28;20576;-58
2023/06/20 11:54:54;;;;;;;1258.47;999.90;;;;;;;;;;4980828;28;20138;-58
2023/06/20 11:57:27;;;;;;;1258.55;999.90;;;;;;;;;;4981507;28;20042;-59
2023/06/20 11:59:58;;;;;;;1263.75;999.90;;;;;;;;;;4982523;28;20038;-61
2023/06/20 12:02:27;;;;;;;1259.93;999.90;;;;;;;;;;4980931;28;20038;-62
2023/06/20 12:04:58;;;;;;;1262.35;999.90;;;;;;;;;;4982063;28;20073;-59
2023/06/20 12:07:27;;;;;;;1259.22;999.90;;;;;;;;;;4965006;28;20065;-61
2023/06/20 12:09:53;;;;;;;1261.47;999.90;;;;;;;;;;4984996;28;20146;-60
2023/06/20 12:12:31;;;;;;;1261.53;999.90;;;;;;;;;;4985209;28;20590;-58
2023/06/20 12:14:56;;;;;;;1262.35;999.90;;;;;;;;;;4974714;28;20051;-58
2023/06/20 12:17:22;;;;;;;1265.53;999.90;;;;;;;;;;4974003;28;20552;-63
2023/06/20 12:19:51;;;;;;;1261.82;999.90;;;;;;;;;;4976293;28;20547;-61
2023/06/20 12:22:19;;;;;;;1259.22;999.90;;;;;;;;;;4989323;28;20049;-60
2023/06/20 12:24:45;;;;;;;1261.20;999.90;;;;;;;;;;4987627;28;20046;-60
2023/06/20 12:27:11;;;;;;;1265.72;999.90;;;;;;;;;;4986467;28;20042;-60
2023/06/20 12:29:38;;;;;;;1262.75;999.90;;;;;;;;;;4987418;28;20038;-62
2023/06/20 12:32:04;;;;;;;1263.60;999.90;;;;;;;;;;5004069;28;20041;-61
2023/06/20 12:34:29;;;;;;;1265.18;999.90;;;;;;;;;;4977538;28;20586;-61
2023/06/20 12:36:55;;;;;;;1267.13;999.90;;;;;;;;;;4984994;28;20388;-58
2023/06/20 12:39:20;;;;;;;1260.50;999.90;;;;;;;;;;4980245;28;20042;-58
2023/06/20 12:41:46;;;;;;;1259.25;999.90;;;;;;;;;;4983963;28;20394;-61
2023/06/20 12:44:11;;;;;;;1257.28;999.90;;;;;;;;;;4985897;28;20141;-59
2023/06/20 12:46:37;;;;;;;1264.10;999.90;;;;;;;;;;4985602;28;20034;-60
2023/06/20 12:49:03;;;;;;;1269.10;999.90;;;;;;;;;;4985043;28;20042;-60
2023/06/20 12:51:28;;;;;;;1268.57;999.90;;;;;;;;;;4987172;28;20030;-61
2023/06/20 12:53:55;;;;;;;1267.78;999.90;;;;;;;;;;5017018;28;20066;-60
2023/06/20 12:56:22;;;;;;;1267.80;999.90;;;;;;;;;;4987133;28;20042;-64
2023/06/20 12:58:49;;;;;;;1274.63;999.90;;;;;;;;;;4985074;28;20130;-59
2023/06/20 13:01:20;;;;;;;1263.35;999.90;;;;;;;;;;4986366;28;20383;-63
2023/06/20 13:03:46;;;;;;;1272.38;999.90;;;;;;;;;;4983790;28;20049;-59
2023/06/20 13:06:21;;;;;;;1280.55;999.90;;;;;;;;;;5038297;27;2587090;-59
2023/06/20 13:08:52;;;;;;;1270.55;999.90;;;;;;;;;;5112944;27;20091;-59
2023/06/20 13:11:18;;;;;;;1278.07;999.90;;;;;;;;;;5130724;27;20540;-59
2023/06/20 13:13:47;;;;;;;1277.78;999.90;;;;;;;;;;5113953;27;20043;-61
2023/06/20 13:16:15;;;;;;;1277.97;999.90;;;;;;;;;;5133479;27;20552;-60
2023/06/20 13:18:41;;;;;;;1278.68;999.90;;;;;;;;;;5132653;27;20110;-61
2023/06/20 13:21:06;;;;;;;1283.82;999.90;;;;;;;;;;5132543;27;20126;-59
2023/06/20 13:23:33;;;;;;;1288.70;999.90;;;;;;;;;;5132620;27;20054;-64
2023/06/20 13:25:59;;;;;;;1283.85;999.90;;;;;;;;;;5131572;27;20049;-60
2023/06/20 13:28:24;;;;;;;1284.50;999.90;;;;;;;;;;5129442;27;20036;-59
2023/06/20 13:30:52;;;;;;;1273.57;999.90;;;;;;;;;;5111077;27;20038;-59
2023/06/20 13:33:17;;;;;;;1284.75;999.90;;;;;;;;;;5113867;27;20401;-59
2023/06/20 13:35:43;;;;;;;1284.05;999.90;;;;;;;;;;5128768;27;20035;-62
2023/06/20 13:38:08;;;;;;;1288.00;999.90;;;;;;;;;;5130053;27;20042;-59
2023/06/20 13:40:35;;;;;;;1287.65;999.90;;;;;;;;;;5111173;27;20542;-60
2023/06/20 13:43:05;;;;;;;1292.78;999.90;;;;;;;;;;5130370;27;20044;-61